Jamestown, Illinois
Current Conditions -  °F | °C
As of 6:58 PM on Friday 24 Oct 2014 (Local Time) from KBLV Reporting Station
Clear Clear  
Wind Chill: 61°   Ceiling: Unl
Heat Index: 61°   Visibility: 10mi
Dew Point: 51°   Wind: 3mph
Humidity: 71%   Direction: 170°S
Pressure: 30.01"   Gusts: NA
Location:  38.7728°N, 89.5031°W
Report Text: KBLV 242358Z AUTO 17003KT 10SM CLR 16/11 A3001 RMK AO2 SLP165 T01610108 10225 20160 55006 $
Loading
Personal Weather Stations






























Interactive Weather Map
Tropical Storm Tracking
New forecast layout! Learn more

10-Day Weather Forecast

Advertisements
Track Severe Weather on mobile